createdAt,value
2023-11-21T00:00:19.405Z,84.10
2023-11-21T00:02:48.545Z,83.92
2023-11-21T00:05:17.661Z,84.02
2023-11-21T00:07:47.860Z,84.02
2023-11-21T00:10:17.296Z,84.20
2023-11-21T00:12:49.643Z,84.24
2023-11-21T00:15:19.865Z,84.07
2023-11-21T00:17:48.909Z,84.26
2023-11-21T00:20:17.847Z,84.30
2023-11-21T00:22:48.969Z,84.28
2023-11-21T00:25:18.831Z,84.13
2023-11-21T00:27:47.833Z,84.20
2023-11-21T00:30:17.588Z,84.17
2023-11-21T00:32:46.498Z,84.25
2023-11-21T00:35:15.372Z,84.39
2023-11-21T00:37:44.176Z,84.42
2023-11-21T00:40:16.679Z,84.31
2023-11-21T00:42:47.586Z,84.38
2023-11-21T00:45:16.852Z,84.48
2023-11-21T00:47:45.833Z,84.57
2023-11-21T00:50:14.788Z,84.75
2023-11-21T00:52:43.736Z,84.72
2023-11-21T00:55:14.210Z,84.53
2023-11-21T00:57:43.888Z,84.67
2023-11-21T01:00:15.860Z,84.95
2023-11-21T01:02:45.523Z,84.82
2023-11-21T01:05:14.344Z,84.70
2023-11-21T01:07:43.148Z,84.58
2023-11-21T01:10:13.881Z,84.61
2023-11-21T01:12:42.842Z,84.70
2023-11-21T01:15:13.445Z,84.68
2023-11-21T01:17:42.588Z,84.51
2023-11-21T01:20:14.786Z,84.37
2023-11-21T01:22:44.649Z,84.45
2023-11-21T01:25:15.674Z,84.66
2023-11-21T01:27:46.162Z,85.05
2023-11-21T01:30:15.794Z,85.17
2023-11-21T01:32:45.115Z,85.35
2023-11-21T01:35:14.595Z,85.14
2023-11-21T01:37:43.651Z,85.11
2023-11-21T01:40:15.614Z,85.35
2023-11-21T01:42:46.250Z,85.59
2023-11-21T01:45:15.987Z,85.75
2023-11-21T01:47:47.148Z,85.83
2023-11-21T01:50:19.237Z,85.92
2023-11-21T01:52:49.553Z,85.74
2023-11-21T01:55:27.668Z,85.89
2023-11-21T01:57:59.004Z,85.82
2023-11-21T02:00:30.019Z,85.66
2023-11-21T02:03:00.807Z,85.56
2023-11-21T02:05:30.852Z,85.72
2023-11-21T02:08:02.218Z,86.06
2023-11-21T02:10:33.533Z,86.32
2023-11-21T02:13:04.285Z,86.14
2023-11-21T02:15:34.491Z,86.02
2023-11-21T02:18:04.575Z,86.01
2023-11-21T02:20:36.198Z,85.98
2023-11-21T02:23:08.509Z,85.81
2023-11-21T02:25:38.697Z,85.94
2023-11-21T02:28:08.559Z,86.18
2023-11-21T02:30:39.006Z,86.31
2023-11-21T02:33:08.688Z,86.27
2023-11-21T02:35:37.541Z,86.24
2023-11-21T02:38:07.733Z,86.67
2023-11-21T02:40:36.668Z,86.70
2023-11-21T02:43:07.149Z,86.76
2023-11-21T02:45:36.342Z,86.85
2023-11-21T02:48:05.920Z,86.63
2023-11-21T02:50:36.444Z,86.28
2023-11-21T02:53:07.039Z,86.35
2023-11-21T02:55:37.548Z,86.39
2023-11-21T02:58:07.472Z,86.18
2023-11-21T03:00:36.981Z,86.22
2023-11-21T03:03:05.855Z,86.44
2023-11-21T03:05:36.640Z,86.57
2023-11-21T03:08:06.519Z,86.82
2023-11-21T03:10:37.019Z,86.75
2023-11-21T03:13:05.836Z,86.72
2023-11-21T03:15:36.332Z,86.57
2023-11-21T03:18:06.636Z,86.46
2023-11-21T03:20:36.041Z,86.68
2023-11-21T03:23:06.217Z,86.75
2023-11-21T03:25:36.313Z,86.79
2023-11-21T03:28:05.333Z,86.81
2023-11-21T03:30:34.095Z,86.93
2023-11-21T03:33:02.905Z,86.92
2023-11-21T03:35:32.207Z,87.00
2023-11-21T03:38:00.971Z,87.08
2023-11-21T03:40:32.349Z,87.09
2023-11-21T03:43:02.531Z,87.13
2023-11-21T03:45:31.422Z,87.08
2023-11-21T03:48:02.073Z,87.05
2023-11-21T03:50:32.323Z,87.13
2023-11-21T03:53:01.794Z,87.12
2023-11-21T03:55:32.561Z,87.07
2023-11-21T03:58:02.916Z,87.26
2023-11-21T04:00:31.773Z,87.38
2023-11-21T04:03:00.848Z,87.21
2023-11-21T04:05:30.129Z,87.35
2023-11-21T04:07:59.297Z,87.47
2023-11-21T04:10:28.099Z,87.76
2023-11-21T04:12:56.958Z,88.34
2023-11-21T04:15:27.396Z,88.33
2023-11-21T04:17:57.982Z,88.54
2023-11-21T04:20:27.137Z,88.73
2023-11-21T04:22:55.961Z,88.91
2023-11-21T04:25:25.452Z,88.78
2023-11-21T04:27:55.343Z,88.69
2023-11-21T04:30:24.217Z,88.63
2023-11-21T04:32:54.422Z,88.48
2023-11-21T04:35:23.269Z,88.12
2023-11-21T04:37:52.585Z,87.75
2023-11-21T04:40:22.227Z,87.47
2023-11-21T04:42:51.153Z,87.35
2023-11-21T04:45:20.000Z,87.10
2023-11-21T04:47:48.835Z,86.91
2023-11-21T04:50:20.124Z,86.51
2023-11-21T04:52:49.097Z,86.57
2023-11-21T04:55:17.945Z,86.31
2023-11-21T04:57:51.239Z,86.17
2023-11-21T05:00:21.461Z,85.91
2023-11-21T05:02:51.040Z,85.87
2023-11-21T05:05:21.490Z,85.67
2023-11-21T05:07:50.465Z,85.61
2023-11-21T05:10:19.645Z,84.89
2023-11-21T05:12:48.481Z,84.94
2023-11-21T05:15:19.191Z,85.03
2023-11-21T05:17:51.123Z,85.15
2023-11-21T05:20:22.708Z,85.01
2023-11-21T05:22:52.124Z,85.06
2023-11-21T05:25:21.285Z,84.94
2023-11-21T05:27:50.572Z,84.77
2023-11-21T05:30:19.571Z,84.80
2023-11-21T05:32:51.242Z,84.85
2023-11-21T05:35:22.491Z,84.90
2023-11-21T05:37:51.409Z,84.97
2023-11-21T05:40:20.280Z,85.00
2023-11-21T05:42:49.301Z,84.99
2023-11-21T05:45:20.105Z,84.80
2023-11-21T05:47:49.391Z,84.71
2023-11-21T05:50:20.843Z,84.55
2023-11-21T05:52:50.677Z,84.44
2023-11-21T05:55:22.334Z,84.24
2023-11-21T05:57:51.241Z,83.87
2023-11-21T06:00:22.747Z,83.83
2023-11-21T06:02:54.645Z,83.27
2023-11-21T06:05:27.605Z,83.02
2023-11-21T06:08:00.195Z,82.75
2023-11-21T06:10:31.420Z,82.45
2023-11-21T06:13:03.677Z,82.62
2023-11-21T06:15:33.342Z,82.49
2023-11-21T06:18:02.150Z,82.42
2023-11-21T06:20:32.359Z,82.19
2023-11-21T06:23:04.769Z,82.03
2023-11-21T06:25:37.424Z,81.49
2023-11-21T06:28:07.483Z,81.39
2023-11-21T06:30:36.459Z,81.44
2023-11-21T06:33:05.409Z,80.85
2023-11-21T06:35:36.108Z,80.49
2023-11-21T06:38:05.068Z,80.11
2023-11-21T06:40:35.009Z,79.95
2023-11-21T06:43:03.942Z,80.09
2023-11-21T06:45:32.720Z,80.45
2023-11-21T06:48:01.622Z,80.56
2023-11-21T06:50:30.472Z,80.76
2023-11-21T06:53:00.840Z,80.80
2023-11-21T06:55:29.599Z,80.69
2023-11-21T06:57:59.263Z,80.46
2023-11-21T07:00:29.098Z,80.50
2023-11-21T07:02:58.476Z,80.12
2023-11-21T07:05:27.262Z,79.81
2023-11-21T07:07:56.350Z,79.68
2023-11-21T07:10:26.698Z,79.34
2023-11-21T07:12:55.579Z,79.26
2023-11-21T07:15:24.345Z,78.87
2023-11-21T07:17:55.221Z,78.03
2023-11-21T07:20:24.674Z,78.50
2023-11-21T07:22:53.578Z,77.58
2023-11-21T07:25:23.438Z,76.04
2023-11-21T07:27:54.170Z,74.86
2023-11-21T07:30:23.705Z,74.45
2023-11-21T07:32:52.508Z,73.86
2023-11-21T07:35:21.328Z,73.14
2023-11-21T07:37:50.188Z,72.94
2023-11-21T07:40:19.256Z,73.07
2023-11-21T07:42:48.082Z,73.28
2023-11-21T07:45:19.149Z,73.24
2023-11-21T07:47:48.033Z,73.38
2023-11-21T07:50:17.120Z,73.24
2023-11-21T07:52:46.016Z,73.17
2023-11-21T07:55:15.338Z,73.51
2023-11-21T07:57:44.082Z,73.76
2023-11-21T08:00:16.490Z,73.59
2023-11-21T08:02:47.188Z,73.53
2023-11-21T08:05:24.780Z,73.85
2023-11-21T08:07:57.290Z,73.72
2023-11-21T08:10:26.335Z,74.04
2023-11-21T08:12:55.125Z,74.44
2023-11-21T08:15:23.936Z,74.79
2023-11-21T08:17:54.248Z,74.84
2023-11-21T08:20:23.922Z,75.17
2023-11-21T08:22:53.962Z,75.63
2023-11-21T08:25:23.529Z,75.79
2023-11-21T08:28:07.634Z,75.94
2023-11-21T08:30:36.510Z,75.96
2023-11-21T08:33:06.732Z,76.18
2023-11-21T08:35:35.753Z,76.17
2023-11-21T08:38:04.872Z,76.32
2023-11-21T08:40:33.955Z,76.48
2023-11-21T08:43:05.816Z,76.67
2023-11-21T08:45:41.814Z,76.39
2023-11-21T08:48:41.397Z,76.51
2023-11-21T08:51:13.832Z,76.40
2023-11-21T08:53:42.868Z,76.26
2023-11-21T08:56:16.300Z,76.73
2023-11-21T08:58:45.285Z,76.35
2023-11-21T09:01:14.683Z,76.18
2023-11-21T09:03:45.065Z,76.25
2023-11-21T09:06:15.418Z,76.69
2023-11-21T09:08:44.726Z,76.08
2023-11-21T09:11:13.574Z,76.04
2023-11-21T09:13:42.490Z,76.12
2023-11-21T09:16:12.063Z,76.46
2023-11-21T09:18:40.955Z,76.18
2023-11-21T09:21:11.315Z,75.62
2023-11-21T09:23:40.168Z,75.97
2023-11-21T09:26:09.160Z,76.15
2023-11-21T09:28:38.912Z,76.17
2023-11-21T09:31:10.099Z,76.16
2023-11-21T09:33:39.353Z,75.99
2023-11-21T09:36:15.960Z,76.05
2023-11-21T09:38:45.057Z,75.79
2023-11-21T09:41:25.875Z,75.95
2023-11-21T09:44:02.060Z,75.71
2023-11-21T09:46:32.046Z,75.47
2023-11-21T09:49:07.098Z,75.63
2023-11-21T09:51:39.901Z,75.39
2023-11-21T09:54:11.298Z,75.84
2023-11-21T09:56:40.556Z,75.64
2023-11-21T09:59:11.342Z,75.65
2023-11-21T10:01:43.421Z,75.63
2023-11-21T10:04:13.875Z,75.90
2023-11-21T10:06:44.545Z,75.94
2023-11-21T10:09:14.586Z,75.92
2023-11-21T10:11:44.800Z,76.11
2023-11-21T10:14:15.226Z,76.05
2023-11-21T10:16:48.409Z,76.12
2023-11-21T10:19:18.625Z,76.39
2023-11-21T10:21:48.797Z,76.92
2023-11-21T10:24:18.127Z,77.05
2023-11-21T10:26:53.486Z,77.25
2023-11-21T10:29:23.835Z,77.77
2023-11-21T10:31:56.175Z,78.44
2023-11-21T10:34:25.081Z,78.70
2023-11-21T10:36:59.089Z,79.15
2023-11-21T10:39:32.140Z,79.17
2023-11-21T10:42:02.120Z,79.64
2023-11-21T10:44:31.018Z,79.56
2023-11-21T10:47:02.208Z,79.75
2023-11-21T10:49:31.252Z,79.74
2023-11-21T10:52:02.485Z,79.29
2023-11-21T10:54:31.342Z,79.66
2023-11-21T10:57:02.968Z,79.44
2023-11-21T10:59:34.227Z,79.57
2023-11-21T11:02:10.143Z,79.66
2023-11-21T11:04:40.079Z,79.93
2023-11-21T11:07:15.563Z,80.17
2023-11-21T11:09:45.635Z,80.97
2023-11-21T11:12:18.581Z,81.39
2023-11-21T11:14:49.020Z,81.86
2023-11-21T11:17:20.902Z,81.59
2023-11-21T11:19:50.844Z,81.89
2023-11-21T11:22:42.195Z,81.90
2023-11-21T11:25:50.084Z,81.98
2023-11-21T11:28:24.774Z,82.18
2023-11-21T11:31:09.460Z,82.27
2023-11-21T11:33:47.693Z,82.38
2023-11-21T11:36:27.927Z,82.40
2023-11-21T11:38:58.292Z,82.52
2023-11-21T11:41:29.048Z,82.70
2023-11-21T11:43:58.116Z,83.01
2023-11-21T11:46:47.501Z,83.47
2023-11-21T11:49:26.958Z,83.44
2023-11-21T11:52:36.413Z,83.76
2023-11-21T11:55:11.147Z,83.78
2023-11-21T11:57:41.292Z,84.11
2023-11-21T12:00:18.296Z,84.20
2023-11-21T12:02:49.360Z,84.49
2023-11-21T12:05:20.898Z,84.68
2023-11-21T12:07:54.619Z,84.38
2023-11-21T12:10:27.893Z,84.69
2023-11-21T12:12:59.214Z,84.26
2023-11-21T12:15:30.472Z,84.59
2023-11-21T12:18:00.585Z,84.58
2023-11-21T12:20:30.825Z,84.66
2023-11-21T12:23:02.190Z,84.56
2023-11-21T12:25:35.317Z,84.63
2023-11-21T12:28:05.342Z,84.61
2023-11-21T12:30:39.326Z,84.86
2023-11-21T12:33:11.202Z,85.13
2023-11-21T12:35:41.285Z,85.24
2023-11-21T12:38:11.407Z,84.99
2023-11-21T12:40:41.659Z,85.29
2023-11-21T12:43:10.932Z,85.49
2023-11-21T12:45:40.052Z,85.67
2023-11-21T12:48:10.298Z,86.10
2023-11-21T12:50:41.121Z,86.02
2023-11-21T12:53:14.567Z,86.36
2023-11-21T12:55:51.569Z,86.21
2023-11-21T12:58:24.268Z,86.06
2023-11-21T13:00:55.243Z,85.94
2023-11-21T13:03:27.218Z,86.25
2023-11-21T13:05:58.268Z,86.86
2023-11-21T13:08:31.381Z,87.19
2023-11-21T13:11:03.763Z,87.59
2023-11-21T13:13:32.993Z,87.80
2023-11-21T13:16:05.928Z,87.59
2023-11-21T13:18:35.513Z,88.04
2023-11-21T13:21:11.593Z,87.88
2023-11-21T13:23:41.817Z,87.71
2023-11-21T13:26:13.747Z,87.76
2023-11-21T13:28:47.506Z,87.72
2023-11-21T13:31:27.126Z,87.66
2023-11-21T13:34:06.057Z,87.46
2023-11-21T13:36:36.849Z,87.31
2023-11-21T13:39:09.457Z,87.11
2023-11-21T13:41:40.333Z,86.91
2023-11-21T13:44:17.816Z,86.68
2023-11-21T13:46:47.661Z,86.72
2023-11-21T13:49:16.947Z,86.66
2023-11-21T13:51:49.420Z,86.63
2023-11-21T13:54:19.213Z,86.36
2023-11-21T13:56:51.956Z,86.38
2023-11-21T13:59:24.483Z,86.11
2023-11-21T14:01:59.216Z,85.95
2023-11-21T14:04:48.358Z,85.72
2023-11-21T14:07:27.888Z,85.50
2023-11-21T14:09:57.304Z,85.52
2023-11-21T14:12:27.444Z,85.19
2023-11-21T14:14:56.465Z,85.17
2023-11-21T14:17:25.678Z,84.98
2023-11-21T14:19:57.061Z,84.65
2023-11-21T14:22:27.217Z,84.70
2023-11-21T14:24:59.955Z,84.65
2023-11-21T14:27:30.363Z,84.57
2023-11-21T14:30:07.800Z,84.47
2023-11-21T14:32:39.532Z,84.08
2023-11-21T14:35:10.311Z,83.46
2023-11-21T14:37:39.161Z,82.79
2023-11-21T14:40:17.056Z,82.65
2023-11-21T14:42:49.183Z,82.38
2023-11-21T14:45:21.500Z,82.51
2023-11-21T14:47:58.862Z,82.63
2023-11-21T14:50:54.197Z,82.58
2023-11-21T14:53:46.935Z,82.42
2023-11-21T14:56:26.604Z,82.09
2023-11-21T14:58:58.072Z,81.99
2023-11-21T15:01:44.167Z,81.87
2023-11-21T15:04:25.632Z,81.93
2023-11-21T15:06:57.003Z,81.51
2023-11-21T15:09:36.156Z,81.81
2023-11-21T15:12:15.238Z,81.74
2023-11-21T15:14:50.359Z,82.16
2023-11-21T15:17:24.228Z,82.15
2023-11-21T15:19:53.576Z,82.78
2023-11-21T15:22:23.770Z,83.12
2023-11-21T15:24:55.096Z,83.65
2023-11-21T15:27:25.630Z,84.57
2023-11-21T15:29:56.056Z,84.83
2023-11-21T15:32:25.346Z,85.27
2023-11-21T15:34:55.643Z,85.43
2023-11-21T15:37:27.450Z,85.44
2023-11-21T15:39:56.483Z,85.60
2023-11-21T15:42:25.399Z,85.91
2023-11-21T15:44:55.651Z,86.39
2023-11-21T15:47:24.520Z,86.27
2023-11-21T15:49:53.885Z,86.21
2023-11-21T15:52:22.783Z,86.37
2023-11-21T15:54:51.604Z,86.19
2023-11-21T15:57:23.124Z,86.64
2023-11-21T15:59:52.082Z,86.84
2023-11-21T16:02:22.503Z,86.86
2023-11-21T16:04:51.413Z,86.62
2023-11-21T16:07:20.392Z,86.47
2023-11-21T16:09:49.306Z,86.49
2023-11-21T16:12:18.365Z,86.40
2023-11-21T16:14:49.095Z,86.54
2023-11-21T16:17:18.834Z,85.59
2023-11-21T16:19:49.831Z,84.88
2023-11-21T16:22:18.889Z,84.59
2023-11-21T16:24:47.969Z,84.23
2023-11-21T16:27:19.106Z,83.97
2023-11-21T16:29:49.098Z,83.19
2023-11-21T16:32:18.871Z,82.83
2023-11-21T16:34:50.554Z,82.61
2023-11-21T16:37:19.382Z,82.29
2023-11-21T16:39:48.956Z,81.86
2023-11-21T16:42:19.440Z,81.30
2023-11-21T16:44:51.591Z,80.79
2023-11-21T16:47:20.398Z,80.50
2023-11-21T16:49:50.757Z,80.50
2023-11-21T16:52:23.405Z,80.49
2023-11-21T16:54:52.552Z,79.54
2023-11-21T16:57:21.374Z,79.03
2023-11-21T16:59:52.145Z,78.70
2023-11-21T17:02:21.828Z,78.26
2023-11-21T17:04:52.278Z,77.50
2023-11-21T17:07:22.104Z,76.79
2023-11-21T17:09:51.959Z,76.26
2023-11-21T17:12:21.156Z,75.83
2023-11-21T17:14:50.493Z,75.71
2023-11-21T17:17:19.758Z,75.61
2023-11-21T17:19:49.212Z,75.46
2023-11-21T17:22:20.922Z,75.42
2023-11-21T17:24:49.846Z,75.04
2023-11-21T17:27:18.645Z,74.74
2023-11-21T17:29:49.849Z,74.71
2023-11-21T17:32:20.228Z,74.35
2023-11-21T17:34:49.686Z,74.53
2023-11-21T17:37:20.665Z,74.77
2023-11-21T17:39:49.852Z,74.57
2023-11-21T17:42:18.630Z,74.38
2023-11-21T17:44:47.460Z,74.44
2023-11-21T17:47:16.422Z,74.60
2023-11-21T17:49:45.349Z,74.52
2023-11-21T17:52:14.756Z,74.91
2023-11-21T17:54:44.966Z,75.01
2023-11-21T17:57:13.677Z,75.40
2023-11-21T17:59:43.327Z,75.16
2023-11-21T18:02:15.688Z,75.14
2023-11-21T18:04:49.187Z,74.91
2023-11-21T18:07:18.806Z,75.03
2023-11-21T18:09:50.074Z,74.83
2023-11-21T18:12:21.035Z,74.93
2023-11-21T18:14:52.313Z,74.65
2023-11-21T18:17:21.191Z,74.49
2023-11-21T18:19:55.654Z,74.50
2023-11-21T18:22:26.350Z,74.27
2023-11-21T18:24:58.225Z,74.16
2023-11-21T18:27:29.642Z,74.44
2023-11-21T18:29:59.409Z,74.71
2023-11-21T18:32:29.321Z,74.63
2023-11-21T18:34:59.769Z,75.10
2023-11-21T18:37:28.527Z,75.24
2023-11-21T18:39:58.809Z,75.31
2023-11-21T18:42:29.457Z,75.49
2023-11-21T18:44:59.960Z,75.93
2023-11-21T18:47:29.719Z,76.08
2023-11-21T18:49:58.929Z,76.05
2023-11-21T18:52:29.236Z,76.51
2023-11-21T18:54:59.784Z,76.70
2023-11-21T18:57:30.613Z,77.34
2023-11-21T18:59:59.514Z,77.40
2023-11-21T19:02:28.475Z,77.71
2023-11-21T19:04:57.460Z,78.04
2023-11-21T19:07:27.502Z,78.13
2023-11-21T19:09:56.369Z,78.37
2023-11-21T19:12:26.640Z,78.29
2023-11-21T19:14:55.597Z,78.64
2023-11-21T19:17:26.099Z,78.57
2023-11-21T19:19:55.068Z,78.61
2023-11-21T19:22:23.993Z,78.81
2023-11-21T19:24:52.974Z,78.99
2023-11-21T19:27:22.256Z,79.12
2023-11-21T19:29:52.532Z,79.04
2023-11-21T19:32:21.389Z,79.39
2023-11-21T19:34:50.239Z,79.49
2023-11-21T19:37:19.078Z,79.52
2023-11-21T19:39:49.208Z,79.87
2023-11-21T19:42:18.541Z,79.77
2023-11-21T19:44:47.584Z,79.95
2023-11-21T19:47:17.905Z,80.03
2023-11-21T19:49:46.825Z,80.22
2023-11-21T19:52:15.744Z,80.46
2023-11-21T19:54:44.607Z,80.31
2023-11-21T19:57:15.629Z,80.42
2023-11-21T19:59:46.139Z,80.60
2023-11-21T20:02:15.068Z,80.51
2023-11-21T20:04:46.261Z,80.34
2023-11-21T20:07:18.932Z,80.54
2023-11-21T20:09:47.680Z,80.79
2023-11-21T20:12:16.483Z,80.89
2023-11-21T20:14:47.495Z,80.75
2023-11-21T20:17:16.494Z,80.53
2023-11-21T20:19:47.051Z,80.64
2023-11-21T20:22:19.603Z,80.68
2023-11-21T20:24:49.119Z,80.81
2023-11-21T20:27:18.691Z,81.18
2023-11-21T20:29:47.800Z,81.09
2023-11-21T20:32:21.552Z,81.35
2023-11-21T20:34:55.066Z,81.23
2023-11-21T20:37:23.893Z,81.21
2023-11-21T20:39:52.793Z,81.16
2023-11-21T20:42:21.625Z,81.56
2023-11-21T20:44:50.815Z,81.64
2023-11-21T20:47:22.026Z,81.50
2023-11-21T20:49:52.400Z,81.45
2023-11-21T20:52:22.958Z,81.64
2023-11-21T20:54:51.953Z,81.61
2023-11-21T20:57:21.067Z,81.49
2023-11-21T20:59:50.422Z,81.40
2023-11-21T21:02:19.804Z,81.41
2023-11-21T21:04:48.636Z,81.38
2023-11-21T21:07:17.427Z,81.34
2023-11-21T21:09:48.997Z,81.13
2023-11-21T21:12:17.970Z,81.21
2023-11-21T21:14:46.808Z,81.25
2023-11-21T21:17:15.654Z,81.35
2023-11-21T21:19:44.492Z,81.38
2023-11-21T21:22:13.228Z,81.30
2023-11-21T21:24:42.564Z,81.28
2023-11-21T21:27:12.813Z,81.26
2023-11-21T21:29:42.702Z,81.43
2023-11-21T21:32:11.507Z,81.19
2023-11-21T21:34:40.995Z,81.35
2023-11-21T21:37:10.707Z,81.46
2023-11-21T21:39:39.472Z,81.53
2023-11-21T21:42:08.562Z,81.32
2023-11-21T21:44:39.919Z,81.29
2023-11-21T21:47:09.039Z,81.39
2023-11-21T21:49:38.242Z,81.21
2023-11-21T21:52:07.634Z,81.19
2023-11-21T21:54:39.288Z,81.20
2023-11-21T21:57:08.589Z,81.14
2023-11-21T21:59:39.412Z,80.91
2023-11-21T22:02:08.519Z,80.99
2023-11-21T22:04:43.188Z,80.87
2023-11-21T22:07:11.901Z,80.79
2023-11-21T22:09:40.786Z,80.98
2023-11-21T22:12:11.324Z,80.87
2023-11-21T22:14:41.487Z,81.03
2023-11-21T22:17:11.252Z,81.02
2023-11-21T22:19:40.062Z,80.83
2023-11-21T22:22:08.841Z,80.85
2023-11-21T22:24:40.137Z,80.86
2023-11-21T22:27:09.401Z,80.64
2023-11-21T22:29:38.712Z,80.57
2023-11-21T22:32:09.291Z,80.68
2023-11-21T22:34:39.226Z,80.74
2023-11-21T22:37:08.034Z,80.94
2023-11-21T22:39:36.791Z,81.05
2023-11-21T22:42:06.469Z,81.16
2023-11-21T22:44:35.383Z,81.19
2023-11-21T22:47:05.456Z,81.51
2023-11-21T22:49:35.894Z,81.56
2023-11-21T22:52:05.228Z,81.61
2023-11-21T22:54:34.060Z,81.69
2023-11-21T22:57:02.881Z,82.04
2023-11-21T22:59:31.788Z,82.08
2023-11-21T23:02:00.658Z,82.02
2023-11-21T23:04:29.462Z,82.40
2023-11-21T23:06:59.626Z,82.39
2023-11-21T23:09:28.495Z,82.22
2023-11-21T23:11:57.168Z,82.26
2023-11-21T23:14:28.001Z,82.35
2023-11-21T23:16:59.156Z,82.26
2023-11-21T23:19:28.854Z,82.29
2023-11-21T23:21:58.935Z,82.34
2023-11-21T23:24:27.686Z,82.33
2023-11-21T23:26:56.387Z,82.44
2023-11-21T23:29:25.181Z,82.39
2023-11-21T23:31:54.029Z,82.55
2023-11-21T23:34:22.780Z,82.52
2023-11-21T23:36:51.550Z,82.62
2023-11-21T23:39:21.899Z,82.60
2023-11-21T23:41:50.659Z,82.55
2023-11-21T23:44:20.268Z,82.78
2023-11-21T23:46:49.112Z,82.80
2023-11-21T23:49:17.903Z,82.79
2023-11-21T23:51:47.258Z,82.70
2023-11-21T23:54:16.057Z,82.94
2023-11-21T23:56:46.175Z,83.21
2023-11-21T23:59:15.315Z,83.31
